sensor_id;sensor_type;location;lat;lon;timestamp;pressure;altitude;pressure_sealevel;temperature;humidity
61128;BME280;47013;42.664;23.242;2023-02-10T00:00:42;95737.84;;;-5.90;71.24
61128;BME280;47013;42.664;23.242;2023-02-10T00:03:07;95735.97;;;-5.95;71.10
61128;BME280;47013;42.664;23.242;2023-02-10T00:05:32;95734.88;;;-6.04;71.76
61128;BME280;47013;42.664;23.242;2023-02-10T00:07:58;95731.41;;;-6.09;71.45
61128;BME280;47013;42.664;23.242;2023-02-10T00:10:23;95734.59;;;-6.02;71.62
61128;BME280;47013;42.664;23.242;2023-02-10T00:12:48;95733.28;;;-6.00;71.77
61128;BME280;47013;42.664;23.242;2023-02-10T00:15:14;95730.91;;;-6.01;71.38
61128;BME280;47013;42.664;23.242;2023-02-10T00:17:39;95720.34;;;-6.01;71.59
61128;BME280;47013;42.664;23.242;2023-02-10T00:20:05;95725.09;;;-6.03;72.26
61128;BME280;47013;42.664;23.242;2023-02-10T00:22:32;95727.47;;;-6.07;71.91
61128;BME280;47013;42.664;23.242;2023-02-10T00:24:57;95726.38;;;-6.11;72.13
61128;BME280;47013;42.664;23.242;2023-02-10T00:27:22;95721.06;;;-6.16;72.12
61128;BME280;47013;42.664;23.242;2023-02-10T00:29:49;95718.94;;;-6.24;72.63
61128;BME280;47013;42.664;23.242;2023-02-10T00:32:14;95711.69;;;-6.39;73.74
61128;BME280;47013;42.664;23.242;2023-02-10T00:34:39;95714.84;;;-6.42;73.97
61128;BME280;47013;42.664;23.242;2023-02-10T00:37:05;95719.13;;;-6.36;73.48
61128;BME280;47013;42.664;23.242;2023-02-10T00:39:30;95714.63;;;-6.35;73.57
61128;BME280;47013;42.664;23.242;2023-02-10T00:41:55;95707.22;;;-6.38;73.96
61128;BME280;47013;42.664;23.242;2023-02-10T00:44:21;95695.63;;;-6.37;74.48
61128;BME280;47013;42.664;23.242;2023-02-10T00:46:46;95700.69;;;-6.26;73.71
61128;BME280;47013;42.664;23.242;2023-02-10T00:49:11;95696.97;;;-6.30;73.27
61128;BME280;47013;42.664;23.242;2023-02-10T00:51:37;95700.13;;;-6.33;72.78
61128;BME280;47013;42.664;23.242;2023-02-10T00:54:02;95693.19;;;-6.44;72.65
61128;BME280;47013;42.664;23.242;2023-02-10T00:56:28;95698.16;;;-6.53;73.79
61128;BME280;47013;42.664;23.242;2023-02-10T00:58:53;95698.47;;;-6.49;73.98
61128;BME280;47013;42.664;23.242;2023-02-10T01:01:18;95684.75;;;-6.46;73.64
61128;BME280;47013;42.664;23.242;2023-02-10T01:03:45;95683.69;;;-6.45;73.28
61128;BME280;47013;42.664;23.242;2023-02-10T01:06:12;95692.94;;;-6.47;73.17
61128;BME280;47013;42.664;23.242;2023-02-10T01:08:38;95688.41;;;-6.52;73.67
61128;BME280;47013;42.664;23.242;2023-02-10T01:11:06;95690.47;;;-6.59;74.16
61128;BME280;47013;42.664;23.242;2023-02-10T01:13:32;95692.84;;;-6.63;74.29
61128;BME280;47013;42.664;23.242;2023-02-10T01:15:59;95685.66;;;-6.67;74.56
61128;BME280;47013;42.664;23.242;2023-02-10T01:18:24;95683.34;;;-6.64;74.51
61128;BME280;47013;42.664;23.242;2023-02-10T01:20:50;95679.34;;;-6.66;74.29
61128;BME280;47013;42.664;23.242;2023-02-10T01:23:15;95683.34;;;-6.64;74.31
61128;BME280;47013;42.664;23.242;2023-02-10T01:25:41;95676.97;;;-6.68;74.38
61128;BME280;47013;42.664;23.242;2023-02-10T01:28:06;95673.31;;;-6.62;74.19
61128;BME280;47013;42.664;23.242;2023-02-10T01:30:33;95666.16;;;-6.66;74.29
61128;BME280;47013;42.664;23.242;2023-02-10T01:32:58;95671.22;;;-6.60;74.40
61128;BME280;47013;42.664;23.242;2023-02-10T01:35:24;95665.94;;;-6.60;74.06
61128;BME280;47013;42.664;23.242;2023-02-10T01:37:49;95668.84;;;-6.56;74.01
61128;BME280;47013;42.664;23.242;2023-02-10T01:40:15;95669.91;;;-6.57;73.97
61128;BME280;47013;42.664;23.242;2023-02-10T01:42:40;95668.59;;;-6.55;73.92
61128;BME280;47013;42.664;23.242;2023-02-10T01:47:36;95664.09;;;-6.59;73.69
61128;BME280;47013;42.664;23.242;2023-02-10T01:50:03;95661.97;;;-6.62;73.34
61128;BME280;47013;42.664;23.242;2023-02-10T01:52:28;95660.84;;;-6.71;73.95
61128;BME280;47013;42.664;23.242;2023-02-10T01:55:02;95664.28;;;-6.71;73.96
61128;BME280;47013;42.664;23.242;2023-02-10T01:57:29;95653.72;;;-6.76;73.79
61128;BME280;47013;42.664;23.242;2023-02-10T01:59:55;95647.41;;;-6.70;73.42
61128;BME280;47013;42.664;23.242;2023-02-10T02:02:21;95642.59;;;-6.78;74.15
61128;BME280;47013;42.664;23.242;2023-02-10T02:04:50;95647.91;;;-6.73;74.02
61128;BME280;47013;42.664;23.242;2023-02-10T02:07:17;95643.97;;;-6.75;73.51
61128;BME280;47013;42.664;23.242;2023-02-10T02:09:43;95637.31;;;-6.78;73.79
61128;BME280;47013;42.664;23.242;2023-02-10T02:14:41;95633.59;;;-6.87;74.05
61128;BME280;47013;42.664;23.242;2023-02-10T02:32:49;95625.69;;;-6.87;74.17
61128;BME280;47013;42.664;23.242;2023-02-10T02:35:33;95639.69;;;-6.81;73.84
61128;BME280;47013;42.664;23.242;2023-02-10T02:38:01;95632.81;;;-6.82;73.57
61128;BME280;47013;42.664;23.242;2023-02-10T02:40:27;95633.06;;;-6.89;73.85
61128;BME280;47013;42.664;23.242;2023-02-10T02:42:52;95626.41;;;-6.92;74.31
61128;BME280;47013;42.664;23.242;2023-02-10T02:51:08;95621.13;;;-6.97;74.48
61128;BME280;47013;42.664;23.242;2023-02-10T02:53:51;95620.59;;;-6.99;74.35
61128;BME280;47013;42.664;23.242;2023-02-10T02:56:45;95619.78;;;-6.99;74.32
61128;BME280;47013;42.664;23.242;2023-02-10T03:01:51;95615.56;;;-7.00;74.09
61128;BME280;47013;42.664;23.242;2023-02-10T03:04:20;95624.75;;;-7.08;73.95
61128;BME280;47013;42.664;23.242;2023-02-10T03:06:46;95618.66;;;-7.14;74.49
61128;BME280;47013;42.664;23.242;2023-02-10T03:09:12;95614.97;;;-7.13;74.90
61128;BME280;47013;42.664;23.242;2023-02-10T03:11:38;95618.66;;;-7.14;74.69
61128;BME280;47013;42.664;23.242;2023-02-10T03:14:03;95618.59;;;-7.19;74.64
61128;BME280;47013;42.664;23.242;2023-02-10T03:16:28;95617.25;;;-7.21;74.89
61128;BME280;47013;42.664;23.242;2023-02-10T03:18:54;95629.88;;;-7.28;75.35
61128;BME280;47013;42.664;23.242;2023-02-10T03:21:19;95630.34;;;-7.31;75.71
61128;BME280;47013;42.664;23.242;2023-02-10T03:23:45;95612.69;;;-7.31;75.10
61128;BME280;47013;42.664;23.242;2023-02-10T03:26:11;95635.72;;;-7.21;75.20
61128;BME280;47013;42.664;23.242;2023-02-10T03:28:36;95622.28;;;-7.20;75.20
61128;BME280;47013;42.664;23.242;2023-02-10T03:31:06;95622.59;;;-7.16;74.90
61128;BME280;47013;42.664;23.242;2023-02-10T03:33:32;95615.13;;;-7.24;74.48
61128;BME280;47013;42.664;23.242;2023-02-10T03:35:57;95626.31;;;-7.12;74.34
61128;BME280;47013;42.664;23.242;2023-02-10T03:38:23;95616.28;;;-7.10;74.56
61128;BME280;47013;42.664;23.242;2023-02-10T03:40:51;95619.22;;;-7.06;74.65
61128;BME280;47013;42.664;23.242;2023-02-10T03:43:17;95619.75;;;-7.04;73.85
61128;BME280;47013;42.664;23.242;2023-02-10T03:45:43;95607.06;;;-7.07;73.93
61128;BME280;47013;42.664;23.242;2023-02-10T03:48:08;95606.53;;;-7.09;73.86
61128;BME280;47013;42.664;23.242;2023-02-10T03:50:34;95598.81;;;-7.21;73.94
61128;BME280;47013;42.664;23.242;2023-02-10T03:52:59;95597.47;;;-7.29;73.82
61128;BME280;47013;42.664;23.242;2023-02-10T03:55:25;95593.47;;;-7.31;74.68
61128;BME280;47013;42.664;23.242;2023-02-10T03:57:50;95593.22;;;-7.30;74.56
61128;BME280;47013;42.664;23.242;2023-02-10T04:00:16;95588.56;;;-8.09;77.00
61128;BME280;47013;42.664;23.242;2023-02-10T04:02:42;95593.44;;;-7.95;77.83
61128;BME280;47013;42.664;23.242;2023-02-10T04:05:07;95599.31;;;-7.88;77.69
61128;BME280;47013;42.664;23.242;2023-02-10T04:07:33;95593.28;;;-7.84;77.14
61128;BME280;47013;42.664;23.242;2023-02-10T04:09:58;95593.03;;;-7.82;76.64
61128;BME280;47013;42.664;23.242;2023-02-10T04:12:24;95585.75;;;-7.75;76.43
61128;BME280;47013;42.664;23.242;2023-02-10T04:14:49;95584.19;;;-7.71;76.13
61128;BME280;47013;42.664;23.242;2023-02-10T04:17:14;95592.44;;;-7.62;76.35
61128;BME280;47013;42.664;23.242;2023-02-10T04:19:40;95594.84;;;-7.56;76.13
61128;BME280;47013;42.664;23.242;2023-02-10T04:22:05;95600.97;;;-7.50;76.42
61128;BME280;47013;42.664;23.242;2023-02-10T04:24:31;95595.44;;;-7.49;75.52
61128;BME280;47013;42.664;23.242;2023-02-10T04:26:56;95602.09;;;-7.41;75.51
61128;BME280;47013;42.664;23.242;2023-02-10T04:29:22;95590.22;;;-7.44;76.04
61128;BME280;47013;42.664;23.242;2023-02-10T04:31:48;95597.13;;;-7.37;76.00
61128;BME280;47013;42.664;23.242;2023-02-10T04:34:13;95588.94;;;-7.41;75.03
61128;BME280;47013;42.664;23.242;2023-02-10T04:36:38;95602.38;;;-7.37;75.43
61128;BME280;47013;42.664;23.242;2023-02-10T04:39:04;95593.44;;;-7.36;75.31
61128;BME280;47013;42.664;23.242;2023-02-10T04:41:29;95601.63;;;-7.33;74.72
61128;BME280;47013;42.664;23.242;2023-02-10T04:43:55;95599.69;;;-7.43;74.48
61128;BME280;47013;42.664;23.242;2023-02-10T04:46:20;95602.84;;;-7.46;74.14
61128;BME280;47013;42.664;23.242;2023-02-10T04:48:46;95605.97;;;-7.49;74.51
61128;BME280;47013;42.664;23.242;2023-02-10T04:51:12;95608.81;;;-7.55;74.28
61128;BME280;47013;42.664;23.242;2023-02-10T04:53:39;95606.94;;;-7.60;75.25
61128;BME280;47013;42.664;23.242;2023-02-10T04:56:06;95607.94;;;-7.66;75.08
61128;BME280;47013;42.664;23.242;2023-02-10T04:58:32;95611.69;;;-7.57;75.48
61128;BME280;47013;42.664;23.242;2023-02-10T05:00:57;95610.63;;;-7.61;74.62
61128;BME280;47013;42.664;23.242;2023-02-10T05:03:23;95606.66;;;-7.63;74.67
61128;BME280;47013;42.664;23.242;2023-02-10T05:05:49;95607.41;;;-7.68;74.75
61128;BME280;47013;42.664;23.242;2023-02-10T05:08:17;95614.84;;;-7.60;74.91
61128;BME280;47013;42.664;23.242;2023-02-10T05:10:46;95615.88;;;-7.61;74.89
61128;BME280;47013;42.664;23.242;2023-02-10T05:13:11;95622.44;;;-7.63;74.71
61128;BME280;47013;42.664;23.242;2023-02-10T05:15:37;95618.16;;;-7.69;74.68
61128;BME280;47013;42.664;23.242;2023-02-10T05:18:02;95614.44;;;-7.74;74.44
61128;BME280;47013;42.664;23.242;2023-02-10T05:20:28;95634.03;;;-7.64;74.70
61128;BME280;47013;42.664;23.242;2023-02-10T05:22:53;95632.38;;;-7.70;74.71
61128;BME280;47013;42.664;23.242;2023-02-10T05:25:18;95639.00;;;-7.68;75.10
61128;BME280;47013;42.664;23.242;2023-02-10T05:27:44;95645.34;;;-7.64;74.70
61128;BME280;47013;42.664;23.242;2023-02-10T05:30:10;95651.47;;;-7.58;74.74
61128;BME280;47013;42.664;23.242;2023-02-10T05:32:38;95650.16;;;-7.56;73.89
61128;BME280;47013;42.664;23.242;2023-02-10T05:35:03;95651.72;;;-7.60;74.64
61128;BME280;47013;42.664;23.242;2023-02-10T05:37:29;95651.78;;;-7.55;74.63
61128;BME280;47013;42.664;23.242;2023-02-10T05:39:54;95652.78;;;-7.56;75.16
61128;BME280;47013;42.664;23.242;2023-02-10T05:42:20;95653.16;;;-7.47;74.63
61128;BME280;47013;42.664;23.242;2023-02-10T05:44:45;95655.28;;;-7.44;74.69
61128;BME280;47013;42.664;23.242;2023-02-10T05:47:11;95655.00;;;-7.48;74.38
61128;BME280;47013;42.664;23.242;2023-02-10T05:49:36;95655.28;;;-7.44;74.31
61128;BME280;47013;42.664;23.242;2023-02-10T05:52:01;95672.19;;;-7.40;74.03
61128;BME280;47013;42.664;23.242;2023-02-10T05:54:27;95661.94;;;-7.36;74.33
61128;BME280;47013;42.664;23.242;2023-02-10T05:56:52;95671.97;;;-7.33;74.60
61128;BME280;47013;42.664;23.242;2023-02-10T05:59:17;95660.69;;;-7.29;74.41
61128;BME280;47013;42.664;23.242;2023-02-10T06:01:43;95660.72;;;-7.24;73.96
61128;BME280;47013;42.664;23.242;2023-02-10T06:04:09;95675.00;;;-7.20;74.11
61128;BME280;47013;42.664;23.242;2023-02-10T06:06:34;95671.56;;;-7.20;74.72
61128;BME280;47013;42.664;23.242;2023-02-10T06:09:00;95677.44;;;-7.13;75.17
61128;BME280;47013;42.664;23.242;2023-02-10T06:11:25;95675.69;;;-7.02;75.32
61128;BME280;47013;42.664;23.242;2023-02-10T06:13:50;95680.28;;;-6.82;75.29
61128;BME280;47013;42.664;23.242;2023-02-10T06:16:16;95677.19;;;-6.74;75.71
61128;BME280;47013;42.664;23.242;2023-02-10T06:18:41;95685.84;;;-6.79;75.16
61128;BME280;47013;42.664;23.242;2023-02-10T06:21:08;95689.16;;;-6.62;74.80
61128;BME280;47013;42.664;23.242;2023-02-10T06:23:33;95688.44;;;-6.47;74.87
61128;BME280;47013;42.664;23.242;2023-02-10T06:26:00;95693.06;;;-6.64;73.32
61128;BME280;47013;42.664;23.242;2023-02-10T06:28:27;95693.22;;;-6.39;73.82
61128;BME280;47013;42.664;23.242;2023-02-10T06:30:53;95690.91;;;-6.30;73.31
61128;BME280;47013;42.664;23.242;2023-02-10T06:33:19;95701.03;;;-6.12;81.90
61128;BME280;47013;42.664;23.242;2023-02-10T06:35:45;95701.28;;;-6.13;73.61
61128;BME280;47013;42.664;23.242;2023-02-10T06:38:11;95695.03;;;-5.87;84.45
61128;BME280;47013;42.664;23.242;2023-02-10T06:40:37;95700.06;;;-5.85;74.16
61128;BME280;47013;42.664;23.242;2023-02-10T06:43:02;95701.66;;;-5.84;71.79
61128;BME280;47013;42.664;23.242;2023-02-10T06:45:28;95704.31;;;-5.79;71.87
61128;BME280;47013;42.664;23.242;2023-02-10T06:47:54;95703.81;;;-5.71;70.87
61128;BME280;47013;42.664;23.242;2023-02-10T06:50:20;95705.66;;;-5.67;69.96
61128;BME280;47013;42.664;23.242;2023-02-10T06:52:46;95698.53;;;-5.71;69.69
61128;BME280;47013;42.664;23.242;2023-02-10T06:55:12;95707.25;;;-5.71;69.48
61128;BME280;47013;42.664;23.242;2023-02-10T06:57:37;95702.97;;;-5.82;69.51
61128;BME280;47013;42.664;23.242;2023-02-10T07:00:04;95709.91;;;-5.66;69.98
61128;BME280;47013;42.664;23.242;2023-02-10T07:02:30;95718.56;;;-5.80;69.87
61128;BME280;47013;42.664;23.242;2023-02-10T07:04:55;95716.16;;;-5.97;71.12
61128;BME280;47013;42.664;23.242;2023-02-10T07:07:21;95720.91;;;-5.94;71.06
61128;BME280;47013;42.664;23.242;2023-02-10T07:09:46;95722.53;;;-5.78;70.54
61128;BME280;47013;42.664;23.242;2023-02-10T07:12:11;95715.94;;;-5.80;71.01
61128;BME280;47013;42.664;23.242;2023-02-10T07:14:37;95703.25;;;-5.78;70.71
61128;BME280;47013;42.664;23.242;2023-02-10T07:17:03;95701.34;;;-5.88;71.44
61128;BME280;47013;42.664;23.242;2023-02-10T07:19:29;95704.31;;;-5.79;71.34
61128;BME280;47013;42.664;23.242;2023-02-10T07:21:55;95709.38;;;-5.73;71.99
61128;BME280;47013;42.664;23.242;2023-02-10T07:24:21;95696.69;;;-5.71;71.31
61128;BME280;47013;42.664;23.242;2023-02-10T07:26:46;95703.31;;;-5.53;71.10
61128;BME280;47013;42.664;23.242;2023-02-10T07:29:12;95709.69;;;-5.39;71.08
61128;BME280;47013;42.664;23.242;2023-02-10T07:31:37;95702.59;;;-5.28;70.87
61128;BME280;47013;42.664;23.242;2023-02-10T07:34:03;95712.09;;;-5.27;70.53
61128;BME280;47013;42.664;23.242;2023-02-10T07:36:28;95702.63;;;-5.18;70.12
61128;BME280;47013;42.664;23.242;2023-02-10T07:38:53;95704.41;;;-5.39;69.79
61128;BME280;47013;42.664;23.242;2023-02-10T07:41:19;95705.75;;;-5.26;69.86
61128;BME280;47013;42.664;23.242;2023-02-10T07:43:44;95697.31;;;-5.28;69.47
61128;BME280;47013;42.664;23.242;2023-02-10T07:46:10;95695.75;;;-4.98;68.91
61128;BME280;47013;42.664;23.242;2023-02-10T07:48:35;95689.00;;;-4.09;91.07
61128;BME280;47013;42.664;23.242;2023-02-10T07:51:00;95691.50;;;-3.64;83.86
61128;BME280;47013;42.664;23.242;2023-02-10T07:53:26;95694.69;;;-1.30;100.00
61128;BME280;47013;42.664;23.242;2023-02-10T07:55:51;95701.88;;;-1.30;87.90
61128;BME280;47013;42.664;23.242;2023-02-10T07:58:16;95708.53;;;-1.33;65.19
61128;BME280;47013;42.664;23.242;2023-02-10T08:00:42;95709.63;;;-1.34;66.61
61128;BME280;47013;42.664;23.242;2023-02-10T08:03:12;95718.53;;;-1.43;58.20
61128;BME280;47013;42.664;23.242;2023-02-10T08:05:37;95716.59;;;-1.38;58.35
61128;BME280;47013;42.664;23.242;2023-02-10T08:08:03;95715.91;;;-1.25;56.95
61128;BME280;47013;42.664;23.242;2023-02-10T08:10:28;95716.56;;;-1.14;56.45
61128;BME280;47013;42.664;23.242;2023-02-10T08:12:53;95711.38;;;-1.24;55.27
61128;BME280;47013;42.664;23.242;2023-02-10T08:15:19;95705.75;;;-1.41;55.49
61128;BME280;47013;42.664;23.242;2023-02-10T08:17:46;95709.63;;;-1.34;55.24
61128;BME280;47013;42.664;23.242;2023-02-10T08:20:11;95708.56;;;-1.14;55.43
61128;BME280;47013;42.664;23.242;2023-02-10T08:22:37;95701.72;;;-0.82;54.59
61128;BME280;47013;42.664;23.242;2023-02-10T08:25:02;95699.97;;;-0.41;53.76
61128;BME280;47013;42.664;23.242;2023-02-10T08:27:28;95695.59;;;-0.04;52.81
61128;BME280;47013;42.664;23.242;2023-02-10T08:29:56;95703.84;;;0.27;51.37
61128;BME280;47013;42.664;23.242;2023-02-10T08:32:22;95705.28;;;0.61;49.93
61128;BME280;47013;42.664;23.242;2023-02-10T08:34:48;95704.56;;;0.82;49.21
61128;BME280;47013;42.664;23.242;2023-02-10T08:37:15;95706.47;;;0.82;48.68
61128;BME280;47013;42.664;23.242;2023-02-10T08:39:41;95704.81;;;1.08;48.50
61128;BME280;47013;42.664;23.242;2023-02-10T08:42:07;95697.06;;;1.21;47.16
61128;BME280;47013;42.664;23.242;2023-02-10T08:44:33;95701.59;;;0.84;46.94
61128;BME280;47013;42.664;23.242;2023-02-10T08:46:58;95691.16;;;1.10;47.13
61128;BME280;47013;42.664;23.242;2023-02-10T08:49:24;95693.31;;;1.44;46.70
61128;BME280;47013;42.664;23.242;2023-02-10T08:51:53;95701.56;;;1.34;45.09
61128;BME280;47013;42.664;23.242;2023-02-10T08:54:19;95694.47;;;0.93;45.64
61128;BME280;47013;42.664;23.242;2023-02-10T08:56:46;95683.75;;;0.57;45.66
61128;BME280;47013;42.664;23.242;2023-02-10T08:59:12;95694.16;;;0.31;47.32
61128;BME280;47013;42.664;23.242;2023-02-10T09:01:38;95689.00;;;0.48;47.87
61128;BME280;47013;42.664;23.242;2023-02-10T09:04:04;95681.94;;;0.80;48.05
61128;BME280;47013;42.664;23.242;2023-02-10T09:06:32;95688.94;;;0.76;46.08
61128;BME280;47013;42.664;23.242;2023-02-10T09:09:05;95681.59;;;0.45;46.91
61128;BME280;47013;42.664;23.242;2023-02-10T09:11:30;95692.38;;;0.40;47.30
61128;BME280;47013;42.664;23.242;2023-02-10T09:13:56;95682.19;;;0.28;47.58
61128;BME280;47013;42.664;23.242;2023-02-10T09:16:22;95677.94;;;0.41;46.66
61128;BME280;47013;42.664;23.242;2023-02-10T09:18:48;95675.06;;;0.38;46.57
61128;BME280;47013;42.664;23.242;2023-02-10T09:21:13;95666.56;;;0.36;46.28
61128;BME280;47013;42.664;23.242;2023-02-10T09:23:39;95671.13;;;0.35;47.23
61128;BME280;47013;42.664;23.242;2023-02-10T09:26:04;95673.50;;;0.23;46.96
61128;BME280;47013;42.664;23.242;2023-02-10T09:28:30;95667.00;;;0.15;48.24
61128;BME280;47013;42.664;23.242;2023-02-10T09:30:55;95669.97;;;0.14;48.61
61128;BME280;47013;42.664;23.242;2023-02-10T09:33:21;95669.25;;;-0.06;48.66
61128;BME280;47013;42.664;23.242;2023-02-10T09:35:46;95666.56;;;-0.19;47.64
61128;BME280;47013;42.664;23.242;2023-02-10T09:38:12;95660.75;;;-0.08;48.27
61128;BME280;47013;42.664;23.242;2023-02-10T09:41:31;95663.91;;;-0.06;48.62
61128;BME280;47013;42.664;23.242;2023-02-10T09:54:10;95652.88;;;0.01;49.12
61128;BME280;47013;42.664;23.242;2023-02-10T09:56:36;95649.00;;;0.07;48.75
61128;BME280;47013;42.664;23.242;2023-02-10T09:59:02;95657.69;;;0.13;48.95
61128;BME280;47013;42.664;23.242;2023-02-10T10:01:37;95650.28;;;0.23;49.56
61128;BME280;47013;42.664;23.242;2023-02-10T10:04:10;95644.16;;;0.23;49.60
61128;BME280;47013;42.664;23.242;2023-02-10T10:06:40;95645.06;;;-0.09;48.56
61128;BME280;47013;42.664;23.242;2023-02-10T10:14:00;95630.53;;;-0.17;53.68
61128;BME280;47013;42.664;23.242;2023-02-10T10:26:58;95612.22;;;1.88;45.20
61128;BME280;47013;42.664;23.242;2023-02-10T10:34:43;95602.25;;;3.67;40.92
61128;BME280;47013;42.664;23.242;2023-02-10T10:37:23;95603.44;;;4.16;39.10
61128;BME280;47013;42.664;23.242;2023-02-10T10:39:55;95594.09;;;4.52;37.75
61128;BME280;47013;42.664;23.242;2023-02-10T10:42:34;95584.88;;;4.61;38.58
61128;BME280;47013;42.664;23.242;2023-02-10T10:50:21;95577.31;;;5.17;38.05
61128;BME280;47013;42.664;23.242;2023-02-10T10:52:50;95575.47;;;5.75;37.01
61128;BME280;47013;42.664;23.242;2023-02-10T10:55:28;95577.56;;;6.27;35.56
61128;BME280;47013;42.664;23.242;2023-02-10T10:57:58;95570.66;;;6.66;34.40
61128;BME280;47013;42.664;23.242;2023-02-10T11:00:26;95572.97;;;6.80;33.57
61128;BME280;47013;42.664;23.242;2023-02-10T11:02:59;95556.88;;;5.95;32.94
61128;BME280;47013;42.664;23.242;2023-02-10T11:05:28;95558.34;;;6.04;34.02
61128;BME280;47013;42.664;23.242;2023-02-10T11:07:55;95561.91;;;6.57;34.11
61128;BME280;47013;42.664;23.242;2023-02-10T11:10:49;95561.84;;;6.29;33.38
61128;BME280;47013;42.664;23.242;2023-02-10T11:13:21;95560.47;;;5.99;34.90
61128;BME280;47013;42.664;23.242;2023-02-10T11:15:48;95560.13;;;6.25;34.25
61128;BME280;47013;42.664;23.242;2023-02-10T11:18:23;95557.75;;;5.86;34.14
61128;BME280;47013;42.664;23.242;2023-02-10T11:20:58;95552.88;;;6.13;34.71
61128;BME280;47013;42.664;23.242;2023-02-10T11:23:25;95555.72;;;5.83;33.85
61128;BME280;47013;42.664;23.242;2023-02-10T11:26:16;95550.88;;;5.65;34.08
61128;BME280;47013;42.664;23.242;2023-02-10T11:28:42;95538.00;;;5.70;33.36
61128;BME280;47013;42.664;23.242;2023-02-10T11:31:32;95543.44;;;6.19;34.15
61128;BME280;47013;42.664;23.242;2023-02-10T11:36:46;95536.13;;;7.12;31.87
61128;BME280;47013;42.664;23.242;2023-02-10T11:39:30;95530.75;;;7.28;31.60
61128;BME280;47013;42.664;23.242;2023-02-10T11:41:57;95543.53;;;7.43;30.77
61128;BME280;47013;42.664;23.242;2023-02-10T11:44:32;95528.13;;;7.44;30.62
61128;BME280;47013;42.664;23.242;2023-02-10T11:47:03;95526.91;;;7.73;31.35
61128;BME280;47013;42.664;23.242;2023-02-10T11:49:31;95527.53;;;7.82;30.35
61128;BME280;47013;42.664;23.242;2023-02-10T11:51:59;95521.16;;;8.21;30.58
61128;BME280;47013;42.664;23.242;2023-02-10T11:54:26;95518.56;;;8.60;30.83
61128;BME280;47013;42.664;23.242;2023-02-10T11:59:59;95506.31;;;9.24;29.65
61128;BME280;47013;42.664;23.242;2023-02-10T12:03:01;95515.91;;;9.41;28.79
61128;BME280;47013;42.664;23.242;2023-02-10T12:05:45;95507.06;;;9.44;28.91
61128;BME280;47013;42.664;23.242;2023-02-10T12:11:55;95504.19;;;9.56;27.83
61128;BME280;47013;42.664;23.242;2023-02-10T12:17:26;95496.34;;;9.28;28.08
61128;BME280;47013;42.664;23.242;2023-02-10T12:36:14;95476.50;;;8.63;29.73
61128;BME280;47013;42.664;23.242;2023-02-10T12:44:44;95475.53;;;7.85;30.90
61128;BME280;47013;42.664;23.242;2023-02-10T12:47:24;95477.78;;;7.51;31.12
61128;BME280;47013;42.664;23.242;2023-02-10T12:50:20;95478.59;;;6.92;31.70
61128;BME280;47013;42.664;23.242;2023-02-10T12:53:26;95475.75;;;6.20;32.62
61128;BME280;47013;42.664;23.242;2023-02-10T12:55:58;95474.50;;;5.57;33.78
61128;BME280;47013;42.664;23.242;2023-02-10T12:58:33;95476.31;;;5.41;34.90
61128;BME280;47013;42.664;23.242;2023-02-10T13:03:41;95466.25;;;5.04;36.05
61128;BME280;47013;42.664;23.242;2023-02-10T13:08:43;95476.97;;;4.38;36.45
61128;BME280;47013;42.664;23.242;2023-02-10T13:11:38;95475.03;;;3.97;37.56
61128;BME280;47013;42.664;23.242;2023-02-10T13:14:12;95468.91;;;3.67;38.41
61128;BME280;47013;42.664;23.242;2023-02-10T13:16:39;95470.13;;;3.78;38.87
61128;BME280;47013;42.664;23.242;2023-02-10T13:21:47;95474.16;;;3.17;38.83
61128;BME280;47013;42.664;23.242;2023-02-10T13:35:34;95470.59;;;2.95;41.92
61128;BME280;47013;42.664;23.242;2023-02-10T13:38:06;95474.69;;;3.02;42.28
61128;BME280;47013;42.664;23.242;2023-02-10T13:43:29;95479.06;;;3.06;42.85
61128;BME280;47013;42.664;23.242;2023-02-10T13:45:56;95476.16;;;2.56;43.79
61128;BME280;47013;42.664;23.242;2023-02-10T13:48:25;95471.28;;;2.58;43.87
61128;BME280;47013;42.664;23.242;2023-02-10T13:50:58;95466.09;;;2.53;43.89
61128;BME280;47013;42.664;23.242;2023-02-10T13:58:49;95475.06;;;2.31;44.06
61128;BME280;47013;42.664;23.242;2023-02-10T14:03:59;95476.81;;;2.27;44.11
61128;BME280;47013;42.664;23.242;2023-02-10T14:06:39;95471.78;;;2.25;43.36
61128;BME280;47013;42.664;23.242;2023-02-10T14:09:59;95475.53;;;2.33;43.87
61128;BME280;47013;42.664;23.242;2023-02-10T14:11:51;95468.94;;;2.39;43.52
61128;BME280;47013;42.664;23.242;2023-02-10T14:16:52;95467.34;;;2.47;43.57
61128;BME280;47013;42.664;23.242;2023-02-10T14:19:36;95475.69;;;2.62;43.59
61128;BME280;47013;42.664;23.242;2023-02-10T14:22:04;95470.16;;;2.59;43.46
61128;BME280;47013;42.664;23.242;2023-02-10T14:24:35;95463.41;;;2.61;43.42
61128;BME280;47013;42.664;23.242;2023-02-10T14:27:03;95472.66;;;2.73;43.34
61128;BME280;47013;42.664;23.242;2023-02-10T14:29:33;95468.09;;;2.73;44.02
61128;BME280;47013;42.664;23.242;2023-02-10T14:32:02;95471.13;;;2.63;43.80
61128;BME280;47013;42.664;23.242;2023-02-10T14:34:30;95465.78;;;2.54;44.97
61128;BME280;47013;42.664;23.242;2023-02-10T14:36:58;95454.44;;;2.57;45.13
61128;BME280;47013;42.664;23.242;2023-02-10T14:39:26;95455.84;;;2.63;45.12
61128;BME280;47013;42.664;23.242;2023-02-10T14:41:54;95442.28;;;2.60;45.13
61128;BME280;47013;42.664;23.242;2023-02-10T14:46:48;95448.88;;;2.71;43.91
61128;BME280;47013;42.664;23.242;2023-02-10T14:49:19;95448.28;;;2.65;43.29
61128;BME280;47013;42.664;23.242;2023-02-10T14:51:46;95450.97;;;2.65;43.15
61128;BME280;47013;42.664;23.242;2023-02-10T14:54:23;95460.75;;;2.53;43.15
61128;BME280;47013;42.664;23.242;2023-02-10T14:59:26;95453.81;;;2.60;45.33
61128;BME280;47013;42.664;23.242;2023-02-10T15:01:54;95459.94;;;2.61;45.31
61128;BME280;47013;42.664;23.242;2023-02-10T15:04:21;95460.88;;;2.56;44.91
61128;BME280;47013;42.664;23.242;2023-02-10T15:06:54;95460.41;;;2.54;45.64
61128;BME280;47013;42.664;23.242;2023-02-10T15:09:29;95465.63;;;2.51;45.68
61128;BME280;47013;42.664;23.242;2023-02-10T15:12:00;95469.25;;;2.55;45.37
61128;BME280;47013;42.664;23.242;2023-02-10T15:17:45;95471.44;;;2.44;45.91